Time;durP1;ratioP1;P1;durP2;ratioP2;P2;SDS_P1;SDS_P2;PMS_P1;PMS_P2;Temp;Humidity;BMP_temperature;BMP_pressure;BME280_temperature;BME280_humidity;BME280_pressure;Samples;Min_cycle;Max_cycle;Signal;HPM_P1;HPM_P2
2021/08/09 00:02:08;;;;;;;2.03;1.63;;;15.90;91.80;;;;;;4996041;28;20029;-78
2021/08/09 00:04:38;;;;;;;6.45;1.67;;;15.90;91.60;;;;;;5000370;28;20074;-78
2021/08/09 00:07:04;;;;;;;2.33;1.60;;;15.90;91.80;;;;;;5001982;28;20448;-78
2021/08/09 00:09:30;;;;;;;2.95;1.67;;;15.90;91.60;;;;;;4994864;28;20033;-77
2021/08/09 00:11:56;;;;;;;3.67;1.75;;;15.90;91.80;;;;;;4998550;28;20056;-78
2021/08/09 00:14:22;;;;;;;5.88;1.83;;;15.90;91.80;;;;;;5008992;28;20111;-78
2021/08/09 00:16:47;;;;;;;4.65;1.92;;;15.90;91.60;;;;;;4994613;28;20068;-78
2021/08/09 00:19:13;;;;;;;4.68;1.80;;;15.90;91.80;;;;;;4993686;28;20030;-78
2021/08/09 00:21:38;;;;;;;4.70;1.70;;;15.90;91.80;;;;;;4994691;28;20490;-78
2021/08/09 00:24:04;;;;;;;6.10;1.70;;;15.90;91.90;;;;;;4997135;28;20037;-78
2021/08/09 00:26:30;;;;;;;4.80;1.60;;;15.90;91.80;;;;;;4994641;28;20033;-78
2021/08/09 00:28:56;;;;;;;3.78;2.40;;;15.90;91.90;;;;;;5004403;28;20036;-78
2021/08/09 00:31:22;;;;;;;3.58;1.42;;;15.90;91.90;;;;;;4994154;28;20030;-78
2021/08/09 00:33:47;;;;;;;3.13;1.75;;;15.90;92.00;;;;;;5010015;28;20022;-79
2021/08/09 00:36:13;;;;;;;2.53;1.70;;;15.90;91.90;;;;;;4991000;28;20168;-78
2021/08/09 00:38:38;;;;;;;5.60;2.97;;;15.90;92.00;;;;;;5007312;28;20041;-78
2021/08/09 00:41:04;;;;;;;5.07;1.70;;;15.90;91.90;;;;;;5014545;28;20105;-78
2021/08/09 00:43:29;;;;;;;2.17;1.23;;;15.80;92.10;;;;;;5015953;28;20736;-79
2021/08/09 00:45:57;;;;;;;5.88;1.45;;;15.80;91.90;;;;;;4993880;28;20033;-78
2021/08/09 00:48:24;;;;;;;5.00;1.80;;;15.80;91.90;;;;;;4995413;28;20048;-78
2021/08/09 00:50:51;;;;;;;2.35;1.20;;;15.90;91.90;;;;;;4997144;28;20041;-78
2021/08/09 00:53:17;;;;;;;3.58;1.75;;;15.80;91.80;;;;;;4994129;28;20040;-78
2021/08/09 00:55:44;;;;;;;4.88;1.95;;;15.70;92.10;;;;;;5002428;28;20036;-78
2021/08/09 00:58:10;;;;;;;4.07;1.90;;;15.70;92.20;;;;;;5001336;28;20029;-78
2021/08/09 01:00:36;;;;;;;9.20;1.95;;;15.70;92.30;;;;;;4994870;28;20095;-78
2021/08/09 01:03:01;;;;;;;3.05;1.65;;;15.70;92.20;;;;;;4991160;28;20440;-78
2021/08/09 01:05:27;;;;;;;5.55;1.50;;;15.70;92.10;;;;;;4999686;28;20060;-78
2021/08/09 01:08:04;;;;;;;4.65;1.55;;;15.70;92.00;;;;;;5002974;28;20056;-78
2021/08/09 01:10:34;;;;;;;2.03;1.50;;;15.70;92.00;;;;;;5008861;28;20048;-78
2021/08/09 01:13:13;;;;;;;2.85;1.60;;;15.60;92.30;;;;;;5012913;28;20166;-78
2021/08/09 01:15:39;;;;;;;4.75;2.53;;;15.50;92.30;;;;;;4995576;28;20026;-78
2021/08/09 01:18:04;;;;;;;4.35;1.75;;;15.50;92.30;;;;;;4997790;28;20462;-80
2021/08/09 01:21:00;;;;;;;4.18;1.50;;;15.50;92.20;;;;;;4994237;28;20112;-78
2021/08/09 01:24:02;;;;;;;5.63;1.50;;;15.60;92.30;;;;;;4997634;28;20033;-77
2021/08/09 01:27:12;;;;;;;3.38;1.65;;;15.60;92.20;;;;;;5008411;28;20029;-78
2021/08/09 01:29:39;;;;;;;4.05;1.90;;;15.50;92.30;;;;;;4919998;29;20048;-79
2021/08/09 01:32:04;;;;;;;3.45;1.95;;;15.40;92.50;;;;;;4933339;28;20087;-78
2021/08/09 01:34:30;;;;;;;7.07;1.40;;;15.40;92.60;;;;;;4978029;28;20037;-77
2021/08/09 01:36:56;;;;;;;2.92;2.03;;;15.40;92.50;;;;;;5014796;28;20455;-77
2021/08/09 01:39:22;;;;;;;4.20;1.70;;;15.40;92.50;;;;;;5000374;28;20037;-77
2021/08/09 01:41:51;;;;;;;4.25;2.20;;;15.40;92.70;;;;;;5003525;28;20037;-77
2021/08/09 01:44:17;;;;;;;3.30;1.77;;;15.40;92.60;;;;;;5013957;28;20033;-77
2021/08/09 01:46:42;;;;;;;5.57;1.80;;;15.30;92.50;;;;;;5000166;28;20375;-78
2021/08/09 01:49:08;;;;;;;8.77;2.17;;;15.30;92.60;;;;;;4990734;28;20572;-77
2021/08/09 01:51:33;;;;;;;2.00;1.33;;;15.20;92.80;;;;;;4994529;28;20037;-77
2021/08/09 01:54:00;;;;;;;7.82;2.03;;;15.10;92.90;;;;;;5004178;28;20115;-77
2021/08/09 01:56:25;;;;;;;5.70;2.33;;;15.20;92.70;;;;;;5000588;28;20033;-77
2021/08/09 01:58:51;;;;;;;6.35;1.95;;;15.20;92.70;;;;;;4999966;28;20091;-77
2021/08/09 02:01:18;;;;;;;3.92;2.03;;;15.20;92.80;;;;;;5000024;28;20404;-77
2021/08/09 02:03:43;;;;;;;3.38;1.50;;;15.20;92.80;;;;;;5004790;28;20034;-77
2021/08/09 02:06:09;;;;;;;4.03;1.80;;;15.20;93.00;;;;;;5012875;28;20040;-77
2021/08/09 02:08:35;;;;;;;2.72;1.70;;;15.30;93.10;;;;;;4997329;28;20171;-79
2021/08/09 02:11:08;;;;;;;3.28;1.67;;;15.20;92.90;;;;;;5013257;28;20021;-77
2021/08/09 02:13:37;;;;;;;7.65;2.13;;;15.20;93.10;;;;;;4998255;28;20385;-78
2021/08/09 02:16:10;;;;;;;6.32;2.00;;;15.10;93.00;;;;;;5000678;28;20108;-78
2021/08/09 02:18:54;;;;;;;4.22;1.63;;;15.20;93.10;;;;;;5006585;28;20039;-78
2021/08/09 02:21:23;;;;;;;3.72;1.65;;;15.20;93.30;;;;;;5013048;28;20040;-78
2021/08/09 02:23:55;;;;;;;6.63;1.90;;;15.20;93.10;;;;;;5004823;28;20390;-77
2021/08/09 02:26:27;;;;;;;3.70;1.98;;;15.10;93.10;;;;;;5000354;28;20112;-77
2021/08/09 02:28:53;;;;;;;5.32;2.03;;;15.20;93.20;;;;;;5001189;28;20123;-78
2021/08/09 02:31:25;;;;;;;4.03;2.30;;;15.10;93.30;;;;;;4996658;28;20397;-78
2021/08/09 02:33:50;;;;;;;6.63;2.40;;;15.00;93.30;;;;;;4996783;28;20033;-77
2021/08/09 02:36:16;;;;;;;4.07;2.10;;;15.00;93.40;;;;;;5000256;28;20390;-77
2021/08/09 02:38:42;;;;;;;4.13;1.90;;;15.00;93.30;;;;;;5000068;28;20060;-78
2021/08/09 02:41:07;;;;;;;5.50;2.08;;;15.00;93.40;;;;;;5011454;28;20469;-78
2021/08/09 02:43:33;;;;;;;3.55;1.90;;;15.10;93.30;;;;;;4997679;28;20030;-77
2021/08/09 02:45:58;;;;;;;2.20;1.90;;;15.10;93.40;;;;;;4984955;28;20030;-77
2021/08/09 02:48:24;;;;;;;3.35;1.50;;;15.10;93.50;;;;;;5010593;28;20145;-78
2021/08/09 02:50:52;;;;;;;4.32;1.63;;;15.10;93.40;;;;;;5003303;28;20029;-77
2021/08/09 02:53:18;;;;;;;5.65;1.90;;;15.10;93.30;;;;;;5002339;28;20017;-77
2021/08/09 02:55:49;;;;;;;4.38;1.60;;;15.10;93.30;;;;;;4996396;28;20390;-77
2021/08/09 02:58:15;;;;;;;10.70;3.35;;;15.10;93.10;;;;;;5008261;28;20030;-78
2021/08/09 03:00:41;;;;;;;5.43;2.00;;;15.20;93.30;;;;;;5005669;28;20036;-78
2021/08/09 03:03:07;;;;;;;3.90;1.88;;;15.10;93.30;;;;;;4999906;28;20033;-78
2021/08/09 03:05:32;;;;;;;3.88;1.70;;;15.10;93.30;;;;;;4997165;28;20044;-77
2021/08/09 03:07:59;;;;;;;2.35;1.55;;;15.00;93.20;;;;;;5000854;28;20029;-78
2021/08/09 03:10:24;;;;;;;4.47;2.05;;;15.00;93.50;;;;;;4997163;28;20432;-78
2021/08/09 03:12:57;;;;;;;2.38;1.73;;;15.00;93.20;;;;;;5008548;28;20029;-77
2021/08/09 03:15:23;;;;;;;2.15;1.63;;;15.00;93.20;;;;;;5011128;28;20447;-79
2021/08/09 03:17:48;;;;;;;3.75;1.70;;;15.00;93.20;;;;;;5000590;28;20025;-78
2021/08/09 03:20:14;;;;;;;5.32;1.92;;;15.10;93.20;;;;;;5003103;28;20484;-78
2021/08/09 03:22:40;;;;;;;10.77;2.10;;;15.10;93.50;;;;;;5017071;28;20022;-77
2021/08/09 03:25:06;;;;;;;5.13;1.98;;;15.10;93.30;;;;;;4994697;28;20033;-79
2021/08/09 03:27:33;;;;;;;3.97;1.90;;;15.10;93.30;;;;;;4999113;28;20029;-77
2021/08/09 03:29:58;;;;;;;6.43;1.77;;;15.10;93.30;;;;;;4998398;28;20043;-78
2021/08/09 03:32:24;;;;;;;5.78;1.77;;;15.00;93.50;;;;;;4992394;28;20431;-77
2021/08/09 03:34:49;;;;;;;4.68;1.85;;;15.10;93.50;;;;;;5018702;28;20373;-77
2021/08/09 03:37:15;;;;;;;1.83;1.55;;;15.10;93.60;;;;;;4996343;28;20025;-78
2021/08/09 03:39:40;;;;;;;6.90;1.77;;;15.10;93.50;;;;;;4992202;28;20037;-78
2021/08/09 03:42:06;;;;;;;3.25;1.88;;;15.20;93.40;;;;;;5013186;28;20063;-78
2021/08/09 03:44:32;;;;;;;7.20;2.20;;;15.20;93.50;;;;;;5008616;28;20030;-77
2021/08/09 03:46:57;;;;;;;2.15;1.55;;;15.10;93.40;;;;;;5015272;28;20374;-77
2021/08/09 03:49:23;;;;;;;5.43;1.90;;;15.10;93.30;;;;;;4996920;28;20052;-77
2021/08/09 03:51:48;;;;;;;4.88;2.00;;;15.20;93.50;;;;;;5000408;28;20044;-77
2021/08/09 03:54:14;;;;;;;7.22;2.40;;;15.10;93.40;;;;;;5013901;28;20033;-77
2021/08/09 03:56:39;;;;;;;8.82;2.33;;;15.10;93.30;;;;;;4994718;28;20512;-77
2021/08/09 03:59:05;;;;;;;3.35;1.60;;;15.10;93.50;;;;;;4997427;28;20382;-78
2021/08/09 04:01:36;;;;;;;6.10;2.30;;;15.10;93.20;;;;;;4999533;28;20025;-78
2021/08/09 04:04:02;;;;;;;4.35;1.90;;;15.10;93.30;;;;;;5017355;28;20030;-77
2021/08/09 04:06:28;;;;;;;4.82;2.25;;;15.00;93.50;;;;;;5010916;28;20021;-77
2021/08/09 04:08:53;;;;;;;3.22;1.77;;;15.00;93.30;;;;;;4994640;28;20029;-78
2021/08/09 04:11:19;;;;;;;4.28;2.00;;;15.10;93.30;;;;;;4994861;28;20034;-77
2021/08/09 04:13:44;;;;;;;2.40;1.65;;;15.10;93.30;;;;;;4997267;28;20098;-78
2021/08/09 04:16:10;;;;;;;3.80;1.90;;;15.10;93.20;;;;;;4996167;28;20464;-78
2021/08/09 04:18:35;;;;;;;7.53;2.20;;;15.10;93.30;;;;;;4994621;28;20180;-76
2021/08/09 04:21:01;;;;;;;5.93;2.13;;;15.10;93.30;;;;;;4994176;28;20037;-76
2021/08/09 04:23:28;;;;;;;3.03;1.67;;;15.10;93.60;;;;;;5012934;28;20159;-76
2021/08/09 04:25:53;;;;;;;6.35;1.90;;;15.00;93.20;;;;;;5017517;28;20523;-77
2021/08/09 04:28:19;;;;;;;5.03;2.20;;;15.00;93.10;;;;;;5012931;28;20040;-77
2021/08/09 04:30:44;;;;;;;6.80;2.13;;;15.00;93.70;;;;;;5008928;28;20025;-76
2021/08/09 04:33:10;;;;;;;2.53;2.00;;;15.00;93.50;;;;;;4995105;28;20044;-77
2021/08/09 04:35:35;;;;;;;4.45;1.92;;;15.00;93.20;;;;;;4998877;28;20035;-78
2021/08/09 04:38:01;;;;;;;6.95;2.40;;;15.00;93.40;;;;;;5015879;28;20036;-77
2021/08/09 04:40:26;;;;;;;3.17;1.83;;;15.00;93.30;;;;;;4998698;28;20025;-77
2021/08/09 04:42:54;;;;;;;3.28;2.10;;;15.00;93.40;;;;;;5010189;28;20040;-77
2021/08/09 04:45:20;;;;;;;4.22;2.35;;;15.00;93.30;;;;;;4993795;28;20044;-76
2021/08/09 04:47:46;;;;;;;5.60;2.08;;;14.90;93.40;;;;;;4991515;28;20030;-79
2021/08/09 04:50:12;;;;;;;7.55;2.15;;;15.00;93.40;;;;;;5002411;28;20044;-77
2021/08/09 04:52:42;;;;;;;2.72;1.60;;;15.00;93.60;;;;;;4992466;28;20467;-76
2021/08/09 04:55:10;;;;;;;3.50;1.90;;;15.00;93.40;;;;;;5003973;28;20080;-77
2021/08/09 04:57:35;;;;;;;3.78;1.80;;;15.00;93.60;;;;;;4994274;28;20034;-79
2021/08/09 05:00:01;;;;;;;4.75;1.95;;;15.00;93.70;;;;;;4996209;28;20083;-78
2021/08/09 05:02:26;;;;;;;4.47;2.00;;;15.00;93.60;;;;;;5009019;28;20029;-77
2021/08/09 05:04:52;;;;;;;5.68;1.80;;;15.00;93.40;;;;;;5010472;28;20393;-77
2021/08/09 05:07:17;;;;;;;6.30;1.90;;;15.00;93.40;;;;;;4999864;28;20033;-78
2021/08/09 05:09:43;;;;;;;5.03;2.92;;;14.90;93.80;;;;;;4992618;28;20033;-78
2021/08/09 05:12:10;;;;;;;4.18;1.80;;;14.90;94.00;;;;;;4999299;28;20121;-77
2021/08/09 05:14:35;;;;;;;4.88;2.15;;;15.00;94.00;;;;;;4997419;28;20029;-79
2021/08/09 05:17:01;;;;;;;5.15;2.38;;;15.00;93.80;;;;;;5009680;28;20823;-79
2021/08/09 05:19:27;;;;;;;3.28;2.05;;;15.10;94.30;;;;;;5009808;28;20033;-79
2021/08/09 05:21:52;;;;;;;5.70;1.98;;;15.10;94.00;;;;;;4999718;28;20033;-79
2021/08/09 05:24:18;;;;;;;5.25;2.55;;;15.30;94.00;;;;;;5009271;28;20453;-78
2021/08/09 05:26:43;;;;;;;4.28;1.95;;;15.20;94.10;;;;;;4974782;28;20053;-78
2021/08/09 05:29:09;;;;;;;3.28;1.67;;;15.20;93.90;;;;;;5009566;28;20037;-79
2021/08/09 05:31:36;;;;;;;2.92;1.80;;;15.40;94.30;;;;;;4993582;28;20037;-79
2021/08/09 05:34:01;;;;;;;6.40;1.98;;;15.30;93.80;;;;;;4995297;28;20037;-79
2021/08/09 05:36:27;;;;;;;5.00;2.30;;;15.30;94.10;;;;;;4999628;28;20498;-79
2021/08/09 05:38:53;;;;;;;3.55;2.00;;;15.30;93.60;;;;;;5013587;28;20086;-79
2021/08/09 05:41:24;;;;;;;7.20;2.00;;;15.30;94.00;;;;;;4997546;28;20025;-79
2021/08/09 05:43:50;;;;;;;9.90;2.15;;;15.30;94.00;;;;;;5000356;28;20040;-80
2021/08/09 05:46:15;;;;;;;4.57;2.13;;;15.50;93.90;;;;;;4994818;28;20398;-81
2021/08/09 05:48:41;;;;;;;5.47;2.15;;;15.40;94.10;;;;;;4995350;28;20489;-79
2021/08/09 05:51:06;;;;;;;5.97;2.28;;;15.40;93.60;;;;;;4998106;28;20031;-79
2021/08/09 05:53:32;;;;;;;6.45;2.00;;;15.40;93.90;;;;;;4997956;28;20041;-79
2021/08/09 05:55:57;;;;;;;4.57;2.25;;;15.50;93.80;;;;;;4989981;28;20034;-79
2021/08/09 05:58:23;;;;;;;5.35;2.13;;;15.50;93.70;;;;;;5009793;28;20038;-79
2021/08/09 06:00:48;;;;;;;3.95;1.75;;;15.50;94.10;;;;;;4991317;28;20075;-79
2021/08/09 06:03:19;;;;;;;4.70;1.80;;;15.60;93.80;;;;;;5008627;28;20079;-79
2021/08/09 06:05:46;;;;;;;4.53;2.20;;;15.60;94.20;;;;;;4996348;28;20432;-79
2021/08/09 06:08:17;;;;;;;6.03;1.88;;;15.70;94.10;;;;;;5013085;28;20108;-79
2021/08/09 06:10:42;;;;;;;7.20;1.85;;;15.70;94.30;;;;;;4999012;28;20042;-79
2021/08/09 06:13:08;;;;;;;7.45;2.08;;;15.80;93.90;;;;;;5010203;28;20030;-78
2021/08/09 06:15:33;;;;;;;5.32;1.73;;;15.90;93.90;;;;;;4993948;28;20140;-79
2021/08/09 06:17:59;;;;;;;6.28;2.47;;;15.80;94.00;;;;;;5003638;28;20061;-80
2021/08/09 06:20:25;;;;;;;4.30;1.95;;;15.80;93.90;;;;;;5012253;28;20044;-79
2021/08/09 06:22:50;;;;;;;4.07;1.92;;;15.90;93.70;;;;;;5002505;28;20029;-78
2021/08/09 06:25:35;;;;;;;3.15;2.03;;;15.90;93.90;;;;;;5017717;28;20017;-80
2021/08/09 06:28:01;;;;;;;3.72;1.40;;;15.90;93.90;;;;;;5012512;28;20523;-80
2021/08/09 06:30:27;;;;;;;6.68;2.20;;;15.90;93.80;;;;;;5012936;28;20026;-78
2021/08/09 06:32:52;;;;;;;4.90;1.77;;;15.90;94.00;;;;;;4987827;28;20034;-78
2021/08/09 06:35:26;;;;;;;5.00;2.83;;;15.90;93.40;;;;;;4990387;28;20029;-79
2021/08/09 06:37:56;;;;;;;3.90;1.70;;;15.90;93.60;;;;;;4985910;28;20025;-78
2021/08/09 06:40:22;;;;;;;3.25;2.17;;;15.90;93.40;;;;;;5013391;28;20490;-78
2021/08/09 06:42:48;;;;;;;2.78;1.70;;;15.90;93.80;;;;;;5005461;28;20024;-78
2021/08/09 06:45:13;;;;;;;4.18;1.80;;;15.90;93.50;;;;;;4999846;28;20075;-77
2021/08/09 06:47:39;;;;;;;2.95;1.65;;;15.90;93.50;;;;;;5003105;28;20029;-80
2021/08/09 06:50:05;;;;;;;8.52;2.30;;;15.90;93.60;;;;;;5014663;28;20040;-78
2021/08/09 06:52:36;;;;;;;3.35;1.92;;;15.90;93.70;;;;;;4993990;28;20048;-78
2021/08/09 06:55:02;;;;;;;5.43;3.03;;;15.80;93.70;;;;;;4998433;28;20470;-79
2021/08/09 06:57:28;;;;;;;2.83;1.88;;;15.80;93.90;;;;;;4998635;28;20022;-78
2021/08/09 06:59:53;;;;;;;2.55;2.33;;;15.80;94.00;;;;;;4995979;28;20022;-79
2021/08/09 07:02:19;;;;;;;4.57;1.92;;;15.80;94.10;;;;;;5012773;28;20030;-79
2021/08/09 07:05:03;;;;;;;3.38;2.25;;;15.80;93.80;;;;;;5010245;28;20030;-78
2021/08/09 07:07:29;;;;;;;4.65;2.22;;;15.90;94.10;;;;;;5000487;28;20375;-78
2021/08/09 07:09:54;;;;;;;10.32;3.00;;;15.90;94.20;;;;;;5013021;28;20086;-79
2021/08/09 07:12:20;;;;;;;6.22;2.50;;;15.90;94.20;;;;;;5000979;28;20115;-80
2021/08/09 07:14:45;;;;;;;5.07;2.10;;;15.90;94.20;;;;;;4998792;28;20049;-80
2021/08/09 07:17:11;;;;;;;4.32;1.65;;;15.90;93.80;;;;;;5010476;28;20137;-79
2021/08/09 07:19:37;;;;;;;4.03;1.67;;;16.00;93.90;;;;;;4993733;28;20025;-80
2021/08/09 07:22:03;;;;;;;3.72;2.05;;;16.00;93.90;;;;;;5019227;28;20128;-79
2021/08/09 07:24:29;;;;;;;4.00;1.65;;;16.00;94.10;;;;;;5015716;28;20434;-79
2021/08/09 07:26:54;;;;;;;3.72;1.70;;;16.10;93.90;;;;;;4990297;28;20041;-80
2021/08/09 07:29:20;;;;;;;3.83;1.58;;;16.20;93.70;;;;;;5010581;28;20042;-79
2021/08/09 07:31:45;;;;;;;5.43;1.90;;;16.20;93.90;;;;;;5012281;28;20543;-79
2021/08/09 07:34:11;;;;;;;6.00;1.98;;;16.30;93.80;;;;;;4995430;28;20440;-78
2021/08/09 07:36:37;;;;;;;5.97;1.77;;;16.40;93.70;;;;;;4999595;28;20486;-77
2021/08/09 07:39:02;;;;;;;3.42;1.52;;;16.50;93.60;;;;;;4998969;28;20397;-78
2021/08/09 07:41:28;;;;;;;4.07;1.83;;;16.60;93.60;;;;;;4996833;28;20544;-79
2021/08/09 07:43:53;;;;;;;3.83;2.22;;;16.80;93.60;;;;;;4998479;28;20053;-78
2021/08/09 07:46:19;;;;;;;3.90;1.48;;;16.90;93.50;;;;;;4993953;28;20057;-77
2021/08/09 07:48:44;;;;;;;2.88;1.58;;;17.20;93.40;;;;;;5003880;28;20513;-78
2021/08/09 07:51:10;;;;;;;4.20;1.60;;;17.30;93.10;;;;;;4998435;28;20390;-79
2021/08/09 07:53:36;;;;;;;3.08;1.40;;;17.60;93.10;;;;;;5012710;28;20114;-78
2021/08/09 07:56:01;;;;;;;3.83;1.73;;;17.90;92.70;;;;;;4991430;28;21594;-78
2021/08/09 07:58:27;;;;;;;5.47;1.88;;;18.10;92.40;;;;;;4997616;28;20052;-77
2021/08/09 08:00:53;;;;;;;6.40;1.73;;;18.10;92.50;;;;;;5001502;28;20029;-77
2021/08/09 08:03:19;;;;;;;3.53;1.23;;;18.10;91.30;;;;;;5013020;28;20378;-79
2021/08/09 08:05:44;;;;;;;10.80;2.85;;;18.10;91.90;;;;;;4993559;28;20026;-78
2021/08/09 08:08:11;;;;;;;4.13;1.52;;;18.20;91.20;;;;;;4991993;28;20045;-77
2021/08/09 08:10:37;;;;;;;3.92;1.73;;;18.40;90.80;;;;;;4996114;28;20036;-78
2021/08/09 08:13:02;;;;;;;4.60;1.58;;;18.50;90.80;;;;;;5009711;28;20038;-78
2021/08/09 08:15:28;;;;;;;8.13;2.17;;;18.60;90.50;;;;;;4995014;28;20036;-78
2021/08/09 08:17:53;;;;;;;3.78;1.70;;;18.80;90.60;;;;;;5001488;28;20029;-78
2021/08/09 08:20:19;;;;;;;4.30;1.33;;;19.10;90.10;;;;;;4994271;28;20021;-78
2021/08/09 08:22:44;;;;;;;4.90;1.83;;;19.20;89.90;;;;;;4992494;28;20034;-78
2021/08/09 08:25:10;;;;;;;5.20;1.60;;;19.60;90.10;;;;;;5009459;28;20025;-79
2021/08/09 08:27:36;;;;;;;4.13;1.75;;;20.00;89.00;;;;;;4997206;28;20025;-79
2021/08/09 08:30:01;;;;;;;1.88;1.10;;;20.30;88.70;;;;;;4992916;28;20101;-79
2021/08/09 08:32:29;;;;;;;4.28;1.70;;;20.30;87.10;;;;;;4992860;28;20034;-78
2021/08/09 08:34:54;;;;;;;2.58;1.20;;;20.70;87.40;;;;;;5001774;28;20029;-80
2021/08/09 08:37:20;;;;;;;3.28;1.33;;;20.90;88.30;;;;;;5013681;28;20330;-79
2021/08/09 08:39:47;;;;;;;2.38;1.40;;;21.20;88.50;;;;;;4993068;28;20087;-80
2021/08/09 08:42:14;;;;;;;4.38;1.77;;;21.30;87.70;;;;;;4996903;28;20563;-79
2021/08/09 08:44:39;;;;;;;5.60;1.67;;;21.40;85.30;;;;;;4991841;28;20354;-79
2021/08/09 08:47:07;;;;;;;3.55;1.48;;;21.30;84.30;;;;;;4993620;28;20127;-81
2021/08/09 08:49:33;;;;;;;3.47;1.60;;;21.30;83.90;;;;;;4995238;28;20452;-80
2021/08/09 08:51:58;;;;;;;2.55;1.30;;;21.50;84.10;;;;;;4992425;28;20025;-80
2021/08/09 08:54:24;;;;;;;1.92;1.20;;;21.70;82.60;;;;;;4989631;28;20474;-81
2021/08/09 08:56:50;;;;;;;3.85;2.20;;;22.30;83.10;;;;;;4993469;28;20472;-79
2021/08/09 08:59:18;;;;;;;3.10;1.25;;;22.30;84.20;;;;;;5005672;28;20035;-80
2021/08/09 09:01:45;;;;;;;4.28;1.73;;;22.70;82.90;;;;;;4995060;28;20030;-80
2021/08/09 09:04:31;;;;;;;4.57;1.63;;;22.90;83.80;;;;;;4995656;28;20041;-79
2021/08/09 09:07:07;;;;;;;3.10;1.50;;;22.90;81.30;;;;;;5017993;28;20037;-79
2021/08/09 09:09:35;;;;;;;5.35;1.55;;;23.10;79.90;;;;;;4978560;28;20044;-81
2021/08/09 09:12:17;;;;;;;8.00;1.67;;;23.30;80.10;;;;;;4993885;28;20037;-80
2021/08/09 09:14:43;;;;;;;2.35;1.00;;;23.20;79.00;;;;;;4995999;28;20037;-82
2021/08/09 09:17:08;;;;;;;4.38;1.17;;;23.30;81.00;;;;;;4991684;28;20393;-80
2021/08/09 09:19:43;;;;;;;4.80;1.23;;;23.20;76.70;;;;;;4989546;28;20056;-81
2021/08/09 09:22:16;;;;;;;2.05;1.15;;;23.50;76.30;;;;;;4997349;28;20048;-80
2021/08/09 09:24:48;;;;;;;3.72;1.25;;;23.80;78.70;;;;;;5014688;28;20600;-80
2021/08/09 09:27:25;;;;;;;4.75;1.02;;;23.90;77.20;;;;;;4995519;28;20038;-82
2021/08/09 09:29:50;;;;;;;2.42;1.08;;;24.10;76.20;;;;;;4998699;28;20041;-82
2021/08/09 09:32:22;;;;;;;3.53;1.58;;;24.20;76.20;;;;;;5007197;28;20490;-82
2021/08/09 09:34:58;;;;;;;5.55;1.10;;;24.50;76.90;;;;;;5006362;28;20116;-81
2021/08/09 09:37:37;;;;;;;3.58;1.38;;;24.90;76.40;;;;;;5009394;28;20508;-83
2021/08/09 09:40:12;;;;;;;5.88;1.02;;;24.90;74.60;;;;;;4994782;28;20037;-83
2021/08/09 09:42:39;;;;;;;8.73;1.55;;;24.90;73.20;;;;;;4990058;28;20033;-83
2021/08/09 09:45:17;;;;;;;2.83;1.17;;;24.70;72.40;;;;;;5007042;28;20029;-82
2021/08/09 09:47:42;;;;;;;2.95;1.40;;;24.80;72.80;;;;;;5007312;28;20059;-83
2021/08/09 09:50:22;;;;;;;3.92;1.63;;;24.90;71.10;;;;;;4997480;28;20481;-83
2021/08/09 09:52:47;;;;;;;6.28;1.23;;;25.20;71.90;;;;;;5016064;28;20037;-83
2021/08/09 09:55:14;;;;;;;7.60;3.50;;;25.00;70.80;;;;;;4995203;28;20029;-82
2021/08/09 09:57:40;;;;;;;5.57;0.90;;;24.80;70.00;;;;;;4994071;28;20117;-84
2021/08/09 10:00:13;;;;;;;1.90;1.00;;;24.50;70.10;;;;;;4994770;28;20470;-83
2021/08/09 10:02:42;;;;;;;7.30;1.40;;;24.20;71.20;;;;;;4998229;28;20053;-82
2021/08/09 10:05:09;;;;;;;2.63;1.08;;;24.30;71.60;;;;;;4994249;28;20482;-82
2021/08/09 10:07:35;;;;;;;1.92;1.20;;;24.20;71.10;;;;;;4997865;28;20489;-83
2021/08/09 10:10:01;;;;;;;5.82;1.83;;;24.20;71.10;;;;;;4993517;28;20038;-83
2021/08/09 10:12:29;;;;;;;3.05;1.58;;;24.00;71.60;;;;;;5014386;28;20037;-83
2021/08/09 10:14:55;;;;;;;8.60;1.40;;;23.70;71.60;;;;;;4996190;28;20452;-83
2021/08/09 10:17:23;;;;;;;3.72;1.23;;;23.60;72.00;;;;;;5005199;28;20045;-82
2021/08/09 10:19:50;;;;;;;3.72;1.60;;;23.40;71.20;;;;;;5006060;28;20425;-83
2021/08/09 10:22:20;;;;;;;5.47;1.20;;;23.60;72.40;;;;;;4999999;28;20033;-82
2021/08/09 10:24:46;;;;;;;4.13;1.27;;;23.70;71.80;;;;;;4984934;28;20029;-82
2021/08/09 10:27:11;;;;;;;3.47;1.70;;;23.60;71.40;;;;;;4995343;28;20037;-83
2021/08/09 10:29:58;;;;;;;4.00;1.15;;;23.80;72.90;;;;;;4995206;28;20482;-83
2021/08/09 10:32:26;;;;;;;2.60;1.00;;;24.40;70.70;;;;;;5026595;28;20066;-82
2021/08/09 10:34:51;;;;;;;4.05;1.27;;;24.00;70.50;;;;;;5000851;28;20061;-82
2021/08/09 10:37:19;;;;;;;3.17;0.90;;;24.20;69.80;;;;;;4999656;28;20030;-84
2021/08/09 10:39:54;;;;;;;4.00;1.00;;;24.50;70.70;;;;;;5004742;28;20297;-81
2021/08/09 10:42:40;;;;;;;4.28;0.90;;;24.60;68.80;;;;;;5008472;28;20131;-82
2021/08/09 10:45:09;;;;;;;5.53;1.17;;;25.10;67.70;;;;;;5008488;28;20064;-82
2021/08/09 10:47:57;;;;;;;3.22;1.00;;;25.30;68.70;;;;;;4981851;28;20022;-83
2021/08/09 10:50:34;;;;;;;3.88;0.90;;;26.00;65.70;;;;;;5012873;28;20559;-80
2021/08/09 10:53:00;;;;;;;3.15;1.48;;;25.90;65.50;;;;;;5018543;28;20030;-80
2021/08/09 10:55:35;;;;;;;2.58;1.15;;;25.20;65.30;;;;;;4983113;28;20075;-80
2021/08/09 10:58:01;;;;;;;2.17;0.98;;;25.50;67.10;;;;;;4995393;28;20040;-80
2021/08/09 11:00:39;;;;;;;3.00;1.00;;;26.00;65.50;;;;;;4979681;28;20063;-80
2021/08/09 11:03:08;;;;;;;5.05;1.30;;;25.60;65.10;;;;;;5011989;28;20034;-80
2021/08/09 11:05:33;;;;;;;1.83;0.90;;;25.90;64.60;;;;;;5011838;28;20025;-81
2021/08/09 11:08:17;;;;;;;3.65;1.10;;;26.10;64.40;;;;;;4999087;28;20025;-80
2021/08/09 11:10:54;;;;;;;2.70;1.00;;;26.90;63.60;;;;;;5014296;28;20032;-79
2021/08/09 11:13:19;;;;;;;4.30;0.93;;;26.60;63.20;;;;;;5021477;28;20022;-81
2021/08/09 11:15:57;;;;;;;7.85;1.50;;;27.00;61.60;;;;;;4999718;28;20044;-78
2021/08/09 11:18:23;;;;;;;3.58;1.13;;;26.90;62.30;;;;;;5008430;28;20084;-79
2021/08/09 11:21:02;;;;;;;5.55;0.95;;;27.30;61.70;;;;;;4992078;28;20577;-79
2021/08/09 11:23:40;;;;;;;2.47;0.70;;;28.00;61.30;;;;;;5008475;28;20029;-78
2021/08/09 11:26:06;;;;;;;3.03;0.90;;;27.50;59.30;;;;;;4992868;28;20349;-79
2021/08/09 11:28:32;;;;;;;3.72;0.93;;;26.70;58.60;;;;;;4992641;28;20072;-79
2021/08/09 11:31:02;;;;;;;3.08;0.80;;;27.10;59.80;;;;;;4995614;28;20044;-78
2021/08/09 11:33:34;;;;;;;3.55;0.60;;;27.00;58.70;;;;;;5006600;28;20469;-79
2021/08/09 11:36:08;;;;;;;3.88;1.92;;;26.50;58.90;;;;;;5008556;28;20030;-79
2021/08/09 11:38:50;;;;;;;1.02;0.55;;;26.70;58.90;;;;;;4994985;28;20490;-79
2021/08/09 11:41:17;;;;;;;1.65;0.73;;;26.50;58.30;;;;;;4996573;28;20032;-79
2021/08/09 11:43:42;;;;;;;2.00;0.80;;;27.10;58.40;;;;;;4992939;28;20029;-78
2021/08/09 11:46:09;;;;;;;1.23;1.02;;;27.10;57.20;;;;;;4996229;28;20371;-78
2021/08/09 11:48:36;;;;;;;5.07;1.38;;;26.50;58.10;;;;;;4992892;28;20068;-79
2021/08/09 11:51:03;;;;;;;2.85;0.60;;;26.50;58.50;;;;;;5012530;28;20037;-79
2021/08/09 11:53:29;;;;;;;1.48;0.50;;;26.90;57.70;;;;;;4994779;28;20033;-79
2021/08/09 11:56:08;;;;;;;1.83;0.75;;;27.00;57.30;;;;;;4995945;28;20720;-79
2021/08/09 11:58:33;;;;;;;1.13;0.63;;;27.00;58.00;;;;;;5009078;28;20433;-79
2021/08/09 12:00:59;;;;;;;3.50;0.85;;;27.90;55.90;;;;;;4996365;28;20060;-79
2021/08/09 12:03:27;;;;;;;3.55;1.05;;;27.80;59.10;;;;;;5008434;28;20092;-79
2021/08/09 12:05:56;;;;;;;4.15;1.35;;;28.10;59.50;;;;;;4991539;28;20476;-79
2021/08/09 12:08:23;;;;;;;5.47;1.20;;;28.80;59.10;;;;;;5005182;28;20437;-79
2021/08/09 12:10:49;;;;;;;4.57;1.10;;;29.10;58.80;;;;;;4998049;28;20041;-79
2021/08/09 12:13:25;;;;;;;2.42;1.00;;;28.90;56.30;;;;;;5012059;28;20087;-79
2021/08/09 12:16:10;;;;;;;1.15;0.70;;;28.00;56.40;;;;;;5009152;28;20560;-80
2021/08/09 12:18:38;;;;;;;2.25;0.70;;;28.90;57.50;;;;;;5005501;28;20103;-80
2021/08/09 12:21:11;;;;;;;4.82;0.93;;;29.10;56.80;;;;;;4995886;28;20037;-80
2021/08/09 12:23:49;;;;;;;4.13;0.93;;;28.90;55.40;;;;;;4996266;28;20393;-80
2021/08/09 12:26:25;;;;;;;2.65;1.00;;;29.20;57.00;;;;;;4996205;28;20053;-79
2021/08/09 12:28:55;;;;;;;1.52;0.85;;;29.00;54.90;;;;;;4980493;28;20164;-79
2021/08/09 12:31:31;;;;;;;2.35;0.75;;;28.90;55.40;;;;;;5005408;28;20061;-79
2021/08/09 12:34:01;;;;;;;1.42;0.75;;;28.00;55.00;;;;;;4991846;28;20094;-79
2021/08/09 12:36:27;;;;;;;2.53;0.80;;;27.50;56.00;;;;;;5008184;28;20598;-79
2021/08/09 12:38:52;;;;;;;7.95;0.60;;;28.00;55.90;;;;;;5009636;28;20115;-79
2021/08/09 12:41:27;;;;;;;3.17;0.70;;;28.30;55.90;;;;;;5010584;28;20489;-79
2021/08/09 12:43:53;;;;;;;4.75;1.20;;;28.10;54.10;;;;;;4991428;28;20179;-79
2021/08/09 12:46:19;;;;;;;4.57;0.98;;;27.80;55.20;;;;;;4996384;28;20116;-79
2021/08/09 12:48:48;;;;;;;1.63;1.00;;;28.00;56.90;;;;;;4993160;28;20042;-79
2021/08/09 12:51:14;;;;;;;3.45;0.82;;;27.60;55.60;;;;;;4995854;28;20072;-79